sensor_id;sensor_type;location;lat;lon;timestamp;pressure;altitude;pressure_sealevel;temperature;humidity
10392;BME280;5242;49.244;6.774;2022-12-04T00:04:24;99329.34;;;1.93;95.92
10392;BME280;5242;49.244;6.774;2022-12-04T00:12:16;99320.50;;;1.92;95.83
10392;BME280;5242;49.244;6.774;2022-12-04T00:20:08;99322.38;;;1.92;96.03
10392;BME280;5242;49.244;6.774;2022-12-04T00:28:00;99314.81;;;1.94;95.75
10392;BME280;5242;49.244;6.774;2022-12-04T00:36:00;99319.69;;;1.92;95.85
10392;BME280;5242;49.244;6.774;2022-12-04T00:43:52;99315.72;;;1.89;95.63
10392;BME280;5242;49.244;6.774;2022-12-04T00:51:44;99308.84;;;1.83;95.91
10392;BME280;5242;49.244;6.774;2022-12-04T00:59:37;99317.41;;;1.85;96.30
10392;BME280;5242;49.244;6.774;2022-12-04T01:07:29;99323.28;;;1.73;95.89
10392;BME280;5242;49.244;6.774;2022-12-04T01:15:21;99344.16;;;1.63;96.27
10392;BME280;5242;49.244;6.774;2022-12-04T01:23:12;99338.91;;;1.58;97.30
10392;BME280;5242;49.244;6.774;2022-12-04T01:31:10;99332.75;;;1.57;96.92
10392;BME280;5242;49.244;6.774;2022-12-04T01:39:03;99331.16;;;1.56;96.60
10392;BME280;5242;49.244;6.774;2022-12-04T01:46:57;99330.16;;;1.52;97.09
10392;BME280;5242;49.244;6.774;2022-12-04T01:54:54;99313.44;;;1.55;97.33
10392;BME280;5242;49.244;6.774;2022-12-04T02:02:47;99315.06;;;1.56;96.76
10392;BME280;5242;49.244;6.774;2022-12-04T02:35:35;99320.00;;;1.63;97.06
10392;BME280;5242;49.244;6.774;2022-12-04T02:43:36;99324.41;;;1.59;96.39
10392;BME280;5242;49.244;6.774;2022-12-04T02:51:34;99314.84;;;1.52;96.83
10392;BME280;5242;49.244;6.774;2022-12-04T02:59:34;99332.84;;;1.52;96.66
10392;BME280;5242;49.244;6.774;2022-12-04T03:07:33;99335.91;;;1.45;96.37
10392;BME280;5242;49.244;6.774;2022-12-04T03:15:35;99325.78;;;1.42;96.28
10392;BME280;5242;49.244;6.774;2022-12-04T03:23:32;99323.41;;;1.41;96.79
10392;BME280;5242;49.244;6.774;2022-12-04T03:31:34;99299.72;;;1.43;96.88
10392;BME280;5242;49.244;6.774;2022-12-04T03:39:37;99316.03;;;1.46;96.62
10392;BME280;5242;49.244;6.774;2022-12-04T03:55:50;99311.75;;;1.45;96.58
10392;BME280;5242;49.244;6.774;2022-12-04T04:03:47;99299.72;;;1.43;96.24
10392;BME280;5242;49.244;6.774;2022-12-04T04:11:55;99304.13;;;1.39;96.00
10392;BME280;5242;49.244;6.774;2022-12-04T04:19:53;99286.22;;;1.34;95.63
10392;BME280;5242;49.244;6.774;2022-12-04T04:28:43;99299.81;;;1.24;96.01
10392;BME280;5242;49.244;6.774;2022-12-04T04:36:49;99298.91;;;1.15;96.07
10392;BME280;5242;49.244;6.774;2022-12-04T04:44:49;99297.63;;;1.12;96.23
10392;BME280;5242;49.244;6.774;2022-12-04T04:52:48;99308.25;;;1.17;96.63
10392;BME280;5242;49.244;6.774;2022-12-04T05:00:55;99313.63;;;1.17;96.09
10392;BME280;5242;49.244;6.774;2022-12-04T05:08:48;99326.75;;;1.19;96.15
10392;BME280;5242;49.244;6.774;2022-12-04T05:16:41;99340.84;;;1.11;96.45
10392;BME280;5242;49.244;6.774;2022-12-04T05:24:33;99336.47;;;1.15;97.10
10392;BME280;5242;49.244;6.774;2022-12-04T05:32:27;99343.72;;;1.14;96.94
10392;BME280;5242;49.244;6.774;2022-12-04T05:40:19;99347.41;;;1.18;97.32
10392;BME280;5242;49.244;6.774;2022-12-04T05:48:11;99341.25;;;1.18;97.02
10392;BME280;5242;49.244;6.774;2022-12-04T05:56:04;99338.59;;;1.18;97.41
10392;BME280;5242;49.244;6.774;2022-12-04T06:03:56;99323.56;;;1.17;96.93
10392;BME280;5242;49.244;6.774;2022-12-04T06:11:48;99325.81;;;1.09;97.58
10392;BME280;5242;49.244;6.774;2022-12-04T06:19:39;99320.00;;;1.07;97.15
10392;BME280;5242;49.244;6.774;2022-12-04T06:27:31;99323.97;;;1.10;97.60
10392;BME280;5242;49.244;6.774;2022-12-04T06:35:23;99345.44;;;1.10;97.35
10392;BME280;5242;49.244;6.774;2022-12-04T06:43:15;99343.63;;;1.05;97.85
10392;BME280;5242;49.244;6.774;2022-12-04T06:51:28;99338.25;;;1.05;97.64
10392;BME280;5242;49.244;6.774;2022-12-04T06:59:21;99346.31;;;1.05;97.52
10392;BME280;5242;49.244;6.774;2022-12-04T07:07:12;99342.59;;;1.01;97.26
10392;BME280;5242;49.244;6.774;2022-12-04T07:15:04;99346.38;;;1.00;97.83
10392;BME280;5242;49.244;6.774;2022-12-04T07:22:56;99362.16;;;1.02;97.95
10392;BME280;5242;49.244;6.774;2022-12-04T07:30:54;99359.28;;;0.98;97.54
10392;BME280;5242;49.244;6.774;2022-12-04T07:38:46;99370.00;;;0.98;98.11
10392;BME280;5242;49.244;6.774;2022-12-04T07:46:38;99378.34;;;0.97;97.82
10392;BME280;5242;49.244;6.774;2022-12-04T07:54:30;99367.63;;;0.97;97.95
10392;BME280;5242;49.244;6.774;2022-12-04T08:02:21;99376.41;;;1.02;99.06
10392;BME280;5242;49.244;6.774;2022-12-04T08:10:13;99378.25;;;1.02;98.46
10392;BME280;5242;49.244;6.774;2022-12-04T08:18:05;99393.06;;;0.99;98.33
10392;BME280;5242;49.244;6.774;2022-12-04T08:25:59;99396.25;;;1.01;98.97
10392;BME280;5242;49.244;6.774;2022-12-04T08:33:53;99406.19;;;1.01;98.62
10392;BME280;5242;49.244;6.774;2022-12-04T08:41:45;99390.88;;;1.01;98.60
10392;BME280;5242;49.244;6.774;2022-12-04T08:49:41;99408.00;;;1.05;98.32
10392;BME280;5242;49.244;6.774;2022-12-04T08:57:33;99397.09;;;1.16;98.70
10392;BME280;5242;49.244;6.774;2022-12-04T09:05:25;99403.88;;;1.27;98.10
10392;BME280;5242;49.244;6.774;2022-12-04T09:13:17;99410.25;;;1.31;97.52
10392;BME280;5242;49.244;6.774;2022-12-04T09:21:10;99413.22;;;1.29;97.36
10392;BME280;5242;49.244;6.774;2022-12-04T09:29:04;99401.69;;;1.29;97.65
10392;BME280;5242;49.244;6.774;2022-12-04T09:36:56;99405.88;;;1.35;97.54
10392;BME280;5242;49.244;6.774;2022-12-04T09:44:52;99410.50;;;1.48;97.84
10392;BME280;5242;49.244;6.774;2022-12-04T09:53:01;99399.75;;;1.48;96.90
10392;BME280;5242;49.244;6.774;2022-12-04T10:00:55;99388.78;;;1.45;96.84
10392;BME280;5242;49.244;6.774;2022-12-04T10:08:52;99369.31;;;1.39;97.06
10392;BME280;5242;49.244;6.774;2022-12-04T10:25:11;99372.69;;;1.45;97.02
10392;BME280;5242;49.244;6.774;2022-12-04T10:49:31;99346.44;;;1.56;97.62
10392;BME280;5242;49.244;6.774;2022-12-04T10:57:44;99326.16;;;1.63;97.50
10392;BME280;5242;49.244;6.774;2022-12-04T11:05:50;99302.41;;;1.70;97.46
10392;BME280;5242;49.244;6.774;2022-12-04T11:13:44;99303.19;;;1.71;96.63
10392;BME280;5242;49.244;6.774;2022-12-04T11:21:37;99299.44;;;1.72;97.56
10392;BME280;5242;49.244;6.774;2022-12-04T11:29:35;99308.47;;;1.76;97.57
10392;BME280;5242;49.244;6.774;2022-12-04T11:37:31;99306.09;;;1.74;96.95
10392;BME280;5242;49.244;6.774;2022-12-04T11:45:24;99328.75;;;1.68;97.35
10392;BME280;5242;49.244;6.774;2022-12-04T12:01:46;99334.75;;;1.79;97.12
10392;BME280;5242;49.244;6.774;2022-12-04T12:18:04;99317.00;;;1.92;97.76
10392;BME280;5242;49.244;6.774;2022-12-04T12:26:11;99313.78;;;2.04;97.45
10392;BME280;5242;49.244;6.774;2022-12-04T12:34:10;99311.59;;;2.06;96.42
10392;BME280;5242;49.244;6.774;2022-12-04T12:42:08;99318.38;;;2.03;96.76
10392;BME280;5242;49.244;6.774;2022-12-04T12:50:10;99322.16;;;2.02;96.75
10392;BME280;5242;49.244;6.774;2022-12-04T12:58:11;99315.88;;;2.07;97.08
10392;BME280;5242;49.244;6.774;2022-12-04T13:06:14;99304.66;;;2.05;96.83
10392;BME280;5242;49.244;6.774;2022-12-04T13:14:11;99292.50;;;2.07;97.09
10392;BME280;5242;49.244;6.774;2022-12-04T13:22:09;99287.25;;;2.02;96.79
10392;BME280;5242;49.244;6.774;2022-12-04T14:02:28;99262.28;;;2.24;96.69
10392;BME280;5242;49.244;6.774;2022-12-04T14:10:36;99262.28;;;2.24;96.60
10392;BME280;5242;49.244;6.774;2022-12-04T14:18:29;99261.22;;;2.25;97.00
10392;BME280;5242;49.244;6.774;2022-12-04T14:26:27;99263.69;;;2.22;97.45
10392;BME280;5242;49.244;6.774;2022-12-04T14:34:42;99269.97;;;2.17;97.42
10392;BME280;5242;49.244;6.774;2022-12-04T14:42:38;99274.56;;;2.16;97.51
10392;BME280;5242;49.244;6.774;2022-12-04T14:50:43;99271.25;;;2.20;97.90
10392;BME280;5242;49.244;6.774;2022-12-04T14:58:37;99264.59;;;2.17;97.49
10392;BME280;5242;49.244;6.774;2022-12-04T15:06:31;99268.69;;;2.14;97.71
10392;BME280;5242;49.244;6.774;2022-12-04T15:14:23;99259.53;;;2.15;97.98
10392;BME280;5242;49.244;6.774;2022-12-04T15:22:22;99266.31;;;2.13;97.59
10392;BME280;5242;49.244;6.774;2022-12-04T15:30:20;99268.00;;;2.09;98.25
10392;BME280;5242;49.244;6.774;2022-12-04T15:38:14;99258.75;;;2.15;98.14
10392;BME280;5242;49.244;6.774;2022-12-04T15:46:13;99265.59;;;2.21;98.15
10392;BME280;5242;49.244;6.774;2022-12-04T15:54:18;99270.34;;;2.24;97.50
10392;BME280;5242;49.244;6.774;2022-12-04T16:02:29;99261.38;;;2.29;97.67
10392;BME280;5242;49.244;6.774;2022-12-04T16:10:22;99259.97;;;2.31;97.77
10392;BME280;5242;49.244;6.774;2022-12-04T16:18:14;99276.09;;;2.31;97.77
10392;BME280;5242;49.244;6.774;2022-12-04T16:26:14;99277.09;;;2.35;97.93
10392;BME280;5242;49.244;6.774;2022-12-04T16:34:08;99279.28;;;2.33;98.48
10392;BME280;5242;49.244;6.774;2022-12-04T16:42:01;99275.81;;;2.33;99.25
10392;BME280;5242;49.244;6.774;2022-12-04T16:49:53;99271.84;;;2.30;99.81
10392;BME280;5242;49.244;6.774;2022-12-04T16:57:46;99269.44;;;2.29;99.74
10392;BME280;5242;49.244;6.774;2022-12-04T17:05:37;99267.06;;;2.27;100.00
10392;BME280;5242;49.244;6.774;2022-12-04T17:13:29;99274.66;;;2.25;100.00
10392;BME280;5242;49.244;6.774;2022-12-04T17:21:21;99285.69;;;2.24;100.00
10392;BME280;5242;49.244;6.774;2022-12-04T17:29:13;99295.16;;;2.21;100.00
10392;BME280;5242;49.244;6.774;2022-12-04T17:37:05;99296.25;;;2.20;100.00
10392;BME280;5242;49.244;6.774;2022-12-04T17:44:57;99298.44;;;2.18;100.00
10392;BME280;5242;49.244;6.774;2022-12-04T17:52:49;99305.59;;;2.23;100.00
10392;BME280;5242;49.244;6.774;2022-12-04T18:00:41;99306.38;;;2.23;100.00
10392;BME280;5242;49.244;6.774;2022-12-04T18:08:32;99304.66;;;2.27;100.00
10392;BME280;5242;49.244;6.774;2022-12-04T18:16:25;99301.97;;;2.27;100.00
10392;BME280;5242;49.244;6.774;2022-12-04T18:24:17;99309.94;;;2.32;100.00
10392;BME280;5242;49.244;6.774;2022-12-04T18:32:09;99316.41;;;2.31;100.00
10392;BME280;5242;49.244;6.774;2022-12-04T18:40:01;99326.66;;;2.29;100.00
10392;BME280;5242;49.244;6.774;2022-12-04T18:47:57;99334.84;;;2.24;100.00
10392;BME280;5242;49.244;6.774;2022-12-04T18:55:50;99334.88;;;2.10;100.00
10392;BME280;5242;49.244;6.774;2022-12-04T19:03:42;99341.75;;;2.03;100.00
10392;BME280;5242;49.244;6.774;2022-12-04T19:11:36;99345.06;;;2.00;100.00
10392;BME280;5242;49.244;6.774;2022-12-04T19:19:28;99350.63;;;1.89;100.00
10392;BME280;5242;49.244;6.774;2022-12-04T19:27:22;99361.97;;;1.86;100.00
10392;BME280;5242;49.244;6.774;2022-12-04T19:35:14;99369.94;;;1.78;100.00
10392;BME280;5242;49.244;6.774;2022-12-04T19:43:06;99378.69;;;1.69;100.00
10392;BME280;5242;49.244;6.774;2022-12-04T19:51:05;99383.38;;;1.64;100.00
10392;BME280;5242;49.244;6.774;2022-12-04T19:58:59;99383.94;;;1.61;100.00
10392;BME280;5242;49.244;6.774;2022-12-04T20:06:51;99393.19;;;1.55;100.00
10392;BME280;5242;49.244;6.774;2022-12-04T20:14:44;99388.78;;;1.45;100.00
10392;BME280;5242;49.244;6.774;2022-12-04T20:22:35;99386.19;;;1.40;100.00
10392;BME280;5242;49.244;6.774;2022-12-04T20:30:27;99384.00;;;1.28;100.00
10392;BME280;5242;49.244;6.774;2022-12-04T20:38:19;99385.78;;;1.19;100.00
10392;BME280;5242;49.244;6.774;2022-12-04T20:46:13;99377.63;;;1.24;100.00
10392;BME280;5242;49.244;6.774;2022-12-04T20:54:06;99384.00;;;1.28;100.00
10392;BME280;5242;49.244;6.774;2022-12-04T21:01:58;99385.78;;;1.33;100.00
10392;BME280;5242;49.244;6.774;2022-12-04T21:09:51;99387.59;;;1.37;100.00
10392;BME280;5242;49.244;6.774;2022-12-04T21:17:43;99381.63;;;1.40;100.00
10392;BME280;5242;49.244;6.774;2022-12-04T21:25:35;99390.19;;;1.42;100.00
10392;BME280;5242;49.244;6.774;2022-12-04T21:33:26;99395.53;;;1.42;100.00
10392;BME280;5242;49.244;6.774;2022-12-04T21:41:19;99401.88;;;1.33;100.00
10392;BME280;5242;49.244;6.774;2022-12-04T21:49:30;99405.38;;;1.33;100.00
10392;BME280;5242;49.244;6.774;2022-12-04T21:57:22;99419.88;;;1.32;100.00
10392;BME280;5242;49.244;6.774;2022-12-04T22:05:14;99425.31;;;1.27;100.00
10392;BME280;5242;49.244;6.774;2022-12-04T22:13:06;99423.75;;;1.26;100.00
10392;BME280;5242;49.244;6.774;2022-12-04T22:20:59;99435.00;;;1.28;100.00
10392;BME280;5242;49.244;6.774;2022-12-04T22:28:51;99443.75;;;1.34;100.00
10392;BME280;5242;49.244;6.774;2022-12-04T22:36:43;99438.16;;;1.30;100.00
10392;BME280;5242;49.244;6.774;2022-12-04T22:44:35;99458.13;;;1.24;100.00
10392;BME280;5242;49.244;6.774;2022-12-04T22:52:30;99462.91;;;1.27;100.00
10392;BME280;5242;49.244;6.774;2022-12-04T23:00:22;99464.81;;;1.40;100.00
10392;BME280;5242;49.244;6.774;2022-12-04T23:08:14;99459.78;;;1.52;100.00
10392;BME280;5242;49.244;6.774;2022-12-04T23:16:06;99462.88;;;1.60;100.00
10392;BME280;5242;49.244;6.774;2022-12-04T23:24:01;99464.09;;;1.67;100.00
10392;BME280;5242;49.244;6.774;2022-12-04T23:31:52;99482.00;;;1.72;100.00
10392;BME280;5242;49.244;6.774;2022-12-04T23:39:45;99487.88;;;1.74;100.00
10392;BME280;5242;49.244;6.774;2022-12-04T23:47:36;99489.47;;;1.75;100.00
10392;BME280;5242;49.244;6.774;2022-12-04T23:55:28;99491.06;;;1.76;100.00
